DLH098 EDDB-EDDV
Flight info
| Callsign | DLH098 |
|---|---|
| Flight time | 0h 36m |
| Altitude | 22000 |
| Route | SUKIP4B/06L SUKIP Y206 BUREL P203 HLZ HLZ1Z |
| Aircraft | A320/M-SDE3FGHIRWY/LB1 |
Departure
| Time | 2026-05-07 16:55 |
|---|---|
| Airport | Berlin Brandenburg Airport (EDDB) |
Arrival
| Time | 2026-05-07 17:31 |
|---|---|
| Airport | Hannover Airport (EDDV) |
| Time | Latitude | Longitude | Altitude | Speed | Heading |
|---|---|---|---|---|---|
| 2026-05-07 16:35 | 52.36579 | 13.50479 | 155 ft | 0 kts | 69° |
| 2026-05-07 16:42 | 52.36575 | 13.50461 | 155 ft | 4 kts | 69° |
| 2026-05-07 16:42 | 52.36565 | 13.50420 | 155 ft | 4 kts | 69° |
| 2026-05-07 16:42 | 52.36555 | 13.50379 | 155 ft | 4 kts | 69° |
| 2026-05-07 16:43 | 52.36546 | 13.50337 | 156 ft | 4 kts | 69° |
| 2026-05-07 16:43 | 52.36538 | 13.50304 | 155 ft | 4 kts | 62° |
| 2026-05-07 16:43 | 52.36522 | 13.50279 | 155 ft | 4 kts | 4° |
| 2026-05-07 16:43 | 52.36498 | 13.50286 | 155 ft | 4 kts | 339° |
| 2026-05-07 16:44 | 52.36485 | 13.50294 | 155 ft | 0 kts | 339° |
| 2026-05-07 16:49 | 52.36500 | 13.50284 | 155 ft | 7 kts | 339° |
| 2026-05-07 16:50 | 52.36541 | 13.50259 | 155 ft | 6 kts | 339° |
| 2026-05-07 16:50 | 52.36575 | 13.50237 | 155 ft | 5 kts | 339° |
| 2026-05-07 16:50 | 52.36604 | 13.50219 | 155 ft | 4 kts | 339° |
| 2026-05-07 16:50 | 52.36627 | 13.50204 | 155 ft | 3 kts | 339° |
| 2026-05-07 16:51 | 52.36645 | 13.50193 | 155 ft | 2 kts | 338° |
| 2026-05-07 16:51 | 52.36661 | 13.50182 | 155 ft | 4 kts | 337° |
| 2026-05-07 16:51 | 52.36688 | 13.50158 | 155 ft | 6 kts | 324° |
| 2026-05-07 16:51 | 52.36743 | 13.50066 | 155 ft | 12 kts | 320° |
| 2026-05-07 16:52 | 52.36779 | 13.49952 | 155 ft | 18 kts | 258° |
| 2026-05-07 16:52 | 52.36713 | 13.49662 | 155 ft | 30 kts | 249° |
| 2026-05-07 16:52 | 52.36634 | 13.49336 | 154 ft | 31 kts | 248° |
| 2026-05-07 16:52 | 52.36579 | 13.49104 | 154 ft | 21 kts | 249° |
| 2026-05-07 16:53 | 52.36527 | 13.48879 | 154 ft | 22 kts | 249° |
| 2026-05-07 16:53 | 52.36467 | 13.48637 | 156 ft | 24 kts | 248° |
| 2026-05-07 16:53 | 52.36461 | 13.48414 | 154 ft | 10 kts | 337° |
| 2026-05-07 16:53 | 52.36512 | 13.48381 | 154 ft | 10 kts | 335° |
| 2026-05-07 16:54 | 52.36620 | 13.48309 | 154 ft | 18 kts | 343° |
| 2026-05-07 16:54 | 52.36757 | 13.48443 | 155 ft | 50 kts | 63° |
| 2026-05-07 16:54 | 52.36967 | 13.49342 | 155 ft | 116 kts | 69° |
| 2026-05-07 16:54 | 52.37311 | 13.50846 | 182 ft | 162 kts | 71° |
| 2026-05-07 16:55 | 52.37692 | 13.52634 | 771 ft | 167 kts | 70° |
| 2026-05-07 16:55 | 52.38104 | 13.54400 | 1613 ft | 165 kts | 66° |
| 2026-05-07 16:55 | 52.38525 | 13.56144 | 2251 ft | 173 kts | 66° |
| 2026-05-07 16:55 | 52.39001 | 13.58095 | 2584 ft | 195 kts | 66° |
| 2026-05-07 16:56 | 52.39532 | 13.60263 | 2968 ft | 216 kts | 66° |
| 2026-05-07 16:56 | 52.40350 | 13.62400 | 3497 ft | 233 kts | 43° |
| 2026-05-07 16:56 | 52.43442 | 13.64722 | 4992 ft | 256 kts | 20° |
| 2026-05-07 16:57 | 52.45138 | 13.65718 | 5884 ft | 261 kts | 20° |
| 2026-05-07 16:57 | 52.46865 | 13.66739 | 6778 ft | 266 kts | 20° |
| 2026-05-07 16:57 | 52.48589 | 13.67762 | 7649 ft | 269 kts | 20° |
| 2026-05-07 16:57 | 52.50395 | 13.68660 | 8464 ft | 275 kts | 8° |
| 2026-05-07 16:58 | 52.52324 | 13.68567 | 9272 ft | 282 kts | 347° |
| 2026-05-07 16:58 | 52.54137 | 13.67282 | 10087 ft | 289 kts | 325° |
| 2026-05-07 16:58 | 52.55551 | 13.64925 | 10837 ft | 294 kts | 304° |
| 2026-05-07 16:58 | 52.56652 | 13.62083 | 11621 ft | 297 kts | 302° |
| 2026-05-07 16:59 | 52.57751 | 13.59192 | 12431 ft | 299 kts | 300° |
| 2026-05-07 16:59 | 52.58326 | 13.57123 | 12968 ft | 302 kts | 289° |
| 2026-05-07 16:59 | 52.58735 | 13.53728 | 13744 ft | 306 kts | 272° |
| 2026-05-07 16:59 | 52.58279 | 13.48999 | 14107 ft | 334 kts | 248° |
| 2026-05-07 17:00 | 52.57210 | 13.45472 | 14240 ft | 356 kts | 243° |
| 2026-05-07 17:00 | 52.56045 | 13.41799 | 14634 ft | 367 kts | 243° |
| 2026-05-07 17:00 | 52.54863 | 13.38057 | 15222 ft | 371 kts | 243° |
| 2026-05-07 17:00 | 52.54075 | 13.35557 | 15681 ft | 373 kts | 243° |
| 2026-05-07 17:01 | 52.52882 | 13.31756 | 16331 ft | 376 kts | 243° |
| 2026-05-07 17:01 | 52.51682 | 13.27930 | 16975 ft | 379 kts | 243° |
| 2026-05-07 17:01 | 52.50072 | 13.22804 | 17786 ft | 384 kts | 243° |
| 2026-05-07 17:01 | 52.48841 | 13.18889 | 18373 ft | 388 kts | 243° |
| 2026-05-07 17:02 | 52.47600 | 13.14949 | 18911 ft | 391 kts | 243° |
| 2026-05-07 17:02 | 52.46751 | 13.12259 | 19272 ft | 393 kts | 243° |
| 2026-05-07 17:02 | 52.45505 | 13.08319 | 19771 ft | 396 kts | 243° |
| 2026-05-07 17:02 | 52.44233 | 13.04301 | 20306 ft | 399 kts | 243° |
| 2026-05-07 17:03 | 52.42953 | 13.00265 | 20834 ft | 400 kts | 244° |
| 2026-05-07 17:03 | 52.41664 | 12.96214 | 21380 ft | 402 kts | 243° |
| 2026-05-07 17:03 | 52.40366 | 12.92145 | 21869 ft | 405 kts | 243° |
| 2026-05-07 17:03 | 52.39055 | 12.88050 | 22040 ft | 407 kts | 243° |
| 2026-05-07 17:04 | 52.37728 | 12.83901 | 22071 ft | 415 kts | 243° |
| 2026-05-07 17:04 | 52.36389 | 12.79712 | 22068 ft | 416 kts | 243° |
| 2026-05-07 17:04 | 52.35046 | 12.75512 | 22068 ft | 417 kts | 243° |
| 2026-05-07 17:04 | 52.33716 | 12.71363 | 22068 ft | 417 kts | 243° |
| 2026-05-07 17:05 | 52.32365 | 12.67165 | 22066 ft | 417 kts | 243° |
| 2026-05-07 17:05 | 52.31010 | 12.62965 | 22065 ft | 419 kts | 243° |
| 2026-05-07 17:05 | 52.29651 | 12.58760 | 22065 ft | 419 kts | 243° |
| 2026-05-07 17:05 | 52.28311 | 12.54536 | 22067 ft | 419 kts | 246° |
| 2026-05-07 17:06 | 52.27333 | 12.50072 | 22069 ft | 417 kts | 257° |
| 2026-05-07 17:06 | 52.26865 | 12.45410 | 22069 ft | 416 kts | 267° |
| 2026-05-07 17:06 | 52.26917 | 12.40702 | 22067 ft | 415 kts | 277° |
| 2026-05-07 17:06 | 52.27450 | 12.36085 | 22073 ft | 414 kts | 284° |
| 2026-05-07 17:07 | 52.28093 | 12.31568 | 22076 ft | 414 kts | 283° |
| 2026-05-07 17:07 | 52.28742 | 12.26984 | 22077 ft | 414 kts | 283° |
| 2026-05-07 17:07 | 52.29383 | 12.22410 | 22077 ft | 414 kts | 283° |
| 2026-05-07 17:07 | 52.30020 | 12.17825 | 22078 ft | 414 kts | 283° |
| 2026-05-07 17:08 | 52.30651 | 12.13245 | 22080 ft | 414 kts | 283° |
| 2026-05-07 17:08 | 52.31282 | 12.08661 | 22078 ft | 413 kts | 283° |
| 2026-05-07 17:08 | 52.31911 | 12.04074 | 22076 ft | 413 kts | 283° |
| 2026-05-07 17:08 | 52.32539 | 11.99486 | 22073 ft | 413 kts | 283° |
| 2026-05-07 17:09 | 52.33164 | 11.94912 | 22075 ft | 413 kts | 283° |
| 2026-05-07 17:09 | 52.33789 | 11.90334 | 22081 ft | 412 kts | 283° |
| 2026-05-07 17:09 | 52.34356 | 11.85804 | 22085 ft | 412 kts | 278° |
| 2026-05-07 17:09 | 52.34563 | 11.81144 | 22086 ft | 411 kts | 272° |
| 2026-05-07 17:10 | 52.34667 | 11.76472 | 22086 ft | 411 kts | 272° |
| 2026-05-07 17:10 | 52.34767 | 11.71808 | 22084 ft | 411 kts | 272° |
| 2026-05-07 17:10 | 52.34863 | 11.67142 | 22081 ft | 410 kts | 272° |
| 2026-05-07 17:10 | 52.34957 | 11.62477 | 22078 ft | 410 kts | 272° |
| 2026-05-07 17:11 | 52.35048 | 11.57813 | 22075 ft | 410 kts | 272° |
| 2026-05-07 17:11 | 52.35139 | 11.53151 | 22078 ft | 410 kts | 272° |
| 2026-05-07 17:11 | 52.35255 | 11.48494 | 22075 ft | 410 kts | 276° |
| 2026-05-07 17:11 | 52.35698 | 11.43967 | 22074 ft | 409 kts | 280° |
| 2026-05-07 17:12 | 52.36198 | 11.39379 | 22073 ft | 410 kts | 280° |
| 2026-05-07 17:12 | 52.36700 | 11.34791 | 22076 ft | 409 kts | 280° |
| 2026-05-07 17:12 | 52.37200 | 11.30205 | 22076 ft | 409 kts | 280° |
| 2026-05-07 17:12 | 52.37693 | 11.25623 | 22076 ft | 409 kts | 279° |
| 2026-05-07 17:13 | 52.38183 | 11.21036 | 22075 ft | 409 kts | 279° |
| 2026-05-07 17:13 | 52.38668 | 11.16473 | 21974 ft | 402 kts | 279° |
| 2026-05-07 17:13 | 52.39147 | 11.11981 | 21342 ft | 399 kts | 279° |
| 2026-05-07 17:13 | 52.39623 | 11.07529 | 20723 ft | 396 kts | 279° |
| 2026-05-07 17:14 | 52.40090 | 11.03168 | 20136 ft | 393 kts | 279° |
| 2026-05-07 17:14 | 52.40561 | 10.98771 | 19544 ft | 391 kts | 279° |
| 2026-05-07 17:14 | 52.41028 | 10.94396 | 18961 ft | 389 kts | 279° |
| 2026-05-07 17:14 | 52.41486 | 10.90047 | 18390 ft | 387 kts | 279° |
| 2026-05-07 17:15 | 52.41937 | 10.85718 | 17736 ft | 385 kts | 279° |
| 2026-05-07 17:15 | 52.42385 | 10.81404 | 17102 ft | 383 kts | 279° |
| 2026-05-07 17:15 | 52.42831 | 10.77107 | 16480 ft | 382 kts | 279° |
| 2026-05-07 17:15 | 52.43274 | 10.72814 | 15862 ft | 382 kts | 279° |
| 2026-05-07 17:16 | 52.43717 | 10.68529 | 15259 ft | 381 kts | 279° |
| 2026-05-07 17:16 | 52.44156 | 10.64251 | 14668 ft | 380 kts | 279° |
| 2026-05-07 17:16 | 52.44591 | 10.59996 | 14088 ft | 378 kts | 279° |
| 2026-05-07 17:16 | 52.45019 | 10.55800 | 13470 ft | 377 kts | 279° |
| 2026-05-07 17:17 | 52.45450 | 10.51578 | 12833 ft | 375 kts | 279° |
| 2026-05-07 17:17 | 52.45876 | 10.47376 | 12203 ft | 373 kts | 279° |
| 2026-05-07 17:17 | 52.46295 | 10.43195 | 11588 ft | 370 kts | 279° |
| 2026-05-07 17:17 | 52.46710 | 10.39043 | 10981 ft | 367 kts | 279° |
| 2026-05-07 17:18 | 52.47122 | 10.34924 | 10394 ft | 364 kts | 279° |
| 2026-05-07 17:18 | 52.47529 | 10.30844 | 9772 ft | 361 kts | 279° |
| 2026-05-07 17:18 | 52.47932 | 10.26802 | 9131 ft | 358 kts | 279° |
| 2026-05-07 17:18 | 52.48329 | 10.22796 | 8501 ft | 354 kts | 279° |
| 2026-05-07 17:19 | 52.48717 | 10.18870 | 7938 ft | 350 kts | 279° |
| 2026-05-07 17:19 | 52.49091 | 10.15063 | 8041 ft | 326 kts | 280° |
| 2026-05-07 17:19 | 52.49440 | 10.11507 | 8034 ft | 307 kts | 280° |
| 2026-05-07 17:19 | 52.49772 | 10.08120 | 7906 ft | 294 kts | 280° |
| 2026-05-07 17:20 | 52.50091 | 10.04864 | 7704 ft | 285 kts | 280° |
| 2026-05-07 17:20 | 52.50402 | 10.01674 | 7359 ft | 282 kts | 280° |
| 2026-05-07 17:20 | 52.50708 | 9.98511 | 7090 ft | 280 kts | 279° |
| 2026-05-07 17:20 | 52.51013 | 9.95343 | 7078 ft | 282 kts | 280° |
| 2026-05-07 17:21 | 52.51320 | 9.92157 | 7086 ft | 283 kts | 280° |
| 2026-05-07 17:21 | 52.51629 | 9.88973 | 7085 ft | 283 kts | 279° |
| 2026-05-07 17:21 | 52.51935 | 9.85782 | 7111 ft | 283 kts | 279° |
| 2026-05-07 17:21 | 52.52238 | 9.82593 | 7111 ft | 283 kts | 279° |
| 2026-05-07 17:22 | 52.52542 | 9.79402 | 7109 ft | 283 kts | 279° |
| 2026-05-07 17:22 | 52.52840 | 9.76260 | 7111 ft | 282 kts | 279° |
| 2026-05-07 17:22 | 52.53144 | 9.73068 | 7111 ft | 283 kts | 279° |
| 2026-05-07 17:22 | 52.53447 | 9.69881 | 7111 ft | 283 kts | 279° |
| 2026-05-07 17:23 | 52.53747 | 9.66694 | 7112 ft | 283 kts | 279° |
| 2026-05-07 17:23 | 52.54046 | 9.63497 | 7112 ft | 283 kts | 279° |
| 2026-05-07 17:23 | 52.54344 | 9.60304 | 7111 ft | 283 kts | 279° |
| 2026-05-07 17:23 | 52.54641 | 9.57118 | 6821 ft | 284 kts | 279° |
| 2026-05-07 17:24 | 52.54840 | 9.53922 | 6661 ft | 281 kts | 272° |
| 2026-05-07 17:24 | 52.54917 | 9.50707 | 6538 ft | 282 kts | 273° |
| 2026-05-07 17:24 | 52.54998 | 9.47532 | 6410 ft | 272 kts | 273° |
| 2026-05-07 17:24 | 52.55078 | 9.44536 | 6272 ft | 260 kts | 273° |
| 2026-05-07 17:25 | 52.55156 | 9.41621 | 6138 ft | 251 kts | 273° |
| 2026-05-07 17:25 | 52.55229 | 9.38769 | 6007 ft | 250 kts | 273° |
| 2026-05-07 17:25 | 52.55301 | 9.35924 | 5862 ft | 248 kts | 273° |
| 2026-05-07 17:25 | 52.55369 | 9.33084 | 5731 ft | 249 kts | 273° |
| 2026-05-07 17:26 | 52.55149 | 9.30264 | 5391 ft | 255 kts | 248° |
| 2026-05-07 17:26 | 52.54121 | 9.27865 | 4718 ft | 263 kts | 217° |
| 2026-05-07 17:26 | 52.52493 | 9.26572 | 4106 ft | 258 kts | 189° |
| 2026-05-07 17:26 | 52.50774 | 9.26206 | 3743 ft | 241 kts | 171° |
| 2026-05-07 17:27 | 52.49273 | 9.27060 | 3388 ft | 223 kts | 138° |
| 2026-05-07 17:27 | 52.48238 | 9.28876 | 3039 ft | 216 kts | 117° |
| 2026-05-07 17:27 | 52.47723 | 9.31146 | 3005 ft | 214 kts | 97° |
| 2026-05-07 17:27 | 52.47630 | 9.33550 | 3001 ft | 215 kts | 90° |
| 2026-05-07 17:28 | 52.47576 | 9.36001 | 3000 ft | 215 kts | 90° |
| 2026-05-07 17:28 | 52.47517 | 9.38456 | 3011 ft | 216 kts | 90° |
| 2026-05-07 17:28 | 52.47457 | 9.40922 | 3011 ft | 218 kts | 91° |
| 2026-05-07 17:28 | 52.47396 | 9.43311 | 2845 ft | 202 kts | 91° |
| 2026-05-07 17:29 | 52.47339 | 9.45569 | 2609 ft | 196 kts | 91° |
| 2026-05-07 17:29 | 52.47282 | 9.47788 | 2349 ft | 194 kts | 91° |
| 2026-05-07 17:29 | 52.47226 | 9.49993 | 2082 ft | 193 kts | 92° |
| 2026-05-07 17:29 | 52.47168 | 9.52247 | 1813 ft | 208 kts | 92° |
| 2026-05-07 17:30 | 52.47108 | 9.54561 | 1517 ft | 198 kts | 92° |
| 2026-05-07 17:30 | 52.47050 | 9.56771 | 1262 ft | 189 kts | 93° |
| 2026-05-07 17:30 | 52.46996 | 9.58836 | 1028 ft | 173 kts | 93° |
| 2026-05-07 17:30 | 52.46945 | 9.60724 | 772 ft | 158 kts | 93° |
| 2026-05-07 17:31 | 52.46900 | 9.62407 | 567 ft | 141 kts | 93° |
| 2026-05-07 17:31 | 52.46858 | 9.63990 | 377 ft | 136 kts | 94° |
| 2026-05-07 17:31 | 52.46814 | 9.65532 | 201 ft | 134 kts | 93° |
| 2026-05-07 17:31 | 52.46784 | 9.66756 | 194 ft | 46 kts | 92° |
| 2026-05-07 17:32 | 52.46778 | 9.67163 | 189 ft | 34 kts | 92° |
| 2026-05-07 17:32 | 52.46763 | 9.67543 | 187 ft | 33 kts | 92° |
| 2026-05-07 17:32 | 52.46746 | 9.67914 | 190 ft | 32 kts | 99° |
| 2026-05-07 17:32 | 52.46670 | 9.68104 | 196 ft | 8 kts | 141° |
| 2026-05-07 17:33 | 52.46629 | 9.68172 | 198 ft | 9 kts | 135° |
| 2026-05-07 17:33 | 52.46547 | 9.68284 | 203 ft | 21 kts | 143° |
| 2026-05-07 17:33 | 52.46426 | 9.68436 | 203 ft | 23 kts | 142° |
| 2026-05-07 17:33 | 52.46297 | 9.68598 | 199 ft | 24 kts | 142° |
| 2026-05-07 17:34 | 52.46158 | 9.68772 | 194 ft | 26 kts | 142° |
| 2026-05-07 17:34 | 52.46011 | 9.68955 | 199 ft | 27 kts | 143° |
| 2026-05-07 17:34 | 52.45893 | 9.69103 | 199 ft | 17 kts | 143° |
| 2026-05-07 17:34 | 52.45809 | 9.69207 | 199 ft | 15 kts | 143° |
| 2026-05-07 17:35 | 52.45767 | 9.69306 | 200 ft | 8 kts | 81° |
| 2026-05-07 17:35 | 52.45801 | 9.69356 | 201 ft | 6 kts | 31° |
| 2026-05-07 17:35 | 52.45825 | 9.69380 | 193 ft | 2 kts | 32° |
| 2026-05-07 17:35 | 52.45833 | 9.69387 | 205 ft | 1 kts | 29° |
| 2026-05-07 17:36 | 52.45839 | 9.69392 | 203 ft | 1 kts | 28° |
| 2026-05-07 17:36 | 52.45840 | 9.69393 | 202 ft | 0 kts | 28° |